Kansas City, Missouri
Traffic Map
Current Weather Conditions
Kansas City, Missouri
Clear
Clear
18°
Feels Like: 18°
Wind Chill: 18° Ceiling: Unl
Heat Index: 18° Visibility: 10mi
Dew Point: 14° Wind: 16mph
Humidity: 78% Direction: 180° (S)
Pressure: 29.62in Gusts: 23mph
Raw Report DataKMKC 020554Z 18014G20KT 10SM CLR 18/14 A2962 RMK AO2 SLP025 T01830144 10211 20172 402780122 58023
Traffic Incident Summary
Active as of:
Severity:
Category:
InformationThere was an issue retrieving the traffic information for this location. Please try a different location or try again shortly.
Advertisements
Track Severe Weather on mobile